createdAt,value
2019-03-26T00:00:56.402Z,102764.45
2019-03-26T00:03:25.101Z,102773.19
2019-03-26T00:05:53.762Z,102775.37
2019-03-26T00:08:22.494Z,102771.16
2019-03-26T00:10:51.291Z,102779.53
2019-03-26T00:13:20.037Z,102775.84
2019-03-26T00:15:48.797Z,102775.79
2019-03-26T00:18:17.487Z,102779.45
2019-03-26T00:20:46.239Z,102781.30
2019-03-26T00:23:15.016Z,102776.23
2019-03-26T00:25:43.794Z,102776.91
2019-03-26T00:28:12.402Z,102781.03
2019-03-26T00:30:41.015Z,102772.63
2019-03-26T00:33:09.651Z,102772.45
2019-03-26T00:35:38.564Z,102771.13
2019-03-26T00:38:07.207Z,102773.16
2019-03-26T00:40:35.845Z,102764.97
2019-03-26T00:43:05.466Z,102767.66
2019-03-26T00:45:34.194Z,102744.27
2019-03-26T00:48:02.799Z,102772.52
2019-03-26T00:50:31.720Z,102773.66
2019-03-26T00:53:00.398Z,102776.84
2019-03-26T00:55:29.092Z,102780.53
2019-03-26T00:57:57.945Z,102790.79
2019-03-26T01:00:41.682Z,102782.87
2019-03-26T01:03:10.509Z,102784.75
2019-03-26T01:05:39.615Z,102773.82
2019-03-26T01:08:08.517Z,102774.66
2019-03-26T01:10:37.246Z,102774.22
2019-03-26T01:13:06.084Z,102786.76
2019-03-26T01:15:34.959Z,102778.90
2019-03-26T01:18:03.760Z,102777.41
2019-03-26T01:20:32.697Z,102776.38
2019-03-26T01:23:01.528Z,102782.73
2019-03-26T01:25:30.316Z,102775.87
2019-03-26T01:27:59.028Z,102785.42
2019-03-26T01:30:27.637Z,102788.95
2019-03-26T01:32:56.293Z,102788.45
2019-03-26T01:35:25.220Z,102783.42
2019-03-26T01:37:53.876Z,102789.98
2019-03-26T01:40:22.636Z,102785.42
2019-03-26T01:42:51.483Z,102798.19
2019-03-26T01:45:20.307Z,102795.50
2019-03-26T01:47:48.956Z,102799.87
2019-03-26T01:50:17.591Z,102792.31
2019-03-26T01:52:46.260Z,102793.47
2019-03-26T01:55:14.942Z,102729.72
2019-03-26T01:57:43.575Z,102794.66
2019-03-26T02:00:12.566Z,102787.75
2019-03-26T02:02:41.240Z,102788.45
2019-03-26T02:05:09.955Z,102791.33
2019-03-26T02:07:39.053Z,102790.62
2019-03-26T02:10:08.444Z,102789.09
2019-03-26T02:12:37.220Z,102789.94
2019-03-26T02:15:08.424Z,102782.07
2019-03-26T02:17:37.179Z,102786.75
2019-03-26T02:20:07.238Z,102787.30
2019-03-26T02:22:35.932Z,102785.42
2019-03-26T02:25:05.669Z,102788.30
2019-03-26T02:27:34.410Z,102789.14
2019-03-26T02:30:03.181Z,102800.72
2019-03-26T02:32:31.806Z,102795.35
2019-03-26T02:35:16.242Z,102798.74
2019-03-26T02:37:30.996Z,102797.22
2019-03-26T02:39:59.698Z,102790.49
2019-03-26T02:42:28.427Z,102791.34
2019-03-26T02:44:57.323Z,102785.83
2019-03-26T02:47:25.957Z,102789.66
2019-03-26T02:49:54.668Z,102788.85
2019-03-26T02:52:23.608Z,102792.39
2019-03-26T02:54:52.367Z,102783.30
2019-03-26T02:57:21.146Z,102780.11
2019-03-26T02:59:50.191Z,102780.81
2019-03-26T03:02:18.973Z,102782.16
2019-03-26T03:04:47.672Z,102793.25
2019-03-26T03:07:16.563Z,102786.73
2019-03-26T03:09:45.332Z,102788.38
2019-03-26T03:12:14.003Z,102785.38
2019-03-26T03:14:42.700Z,102777.18
2019-03-26T03:17:11.314Z,102781.70
2019-03-26T03:19:39.937Z,102785.58
2019-03-26T03:22:08.693Z,102781.72
2019-03-26T03:24:37.428Z,102776.54
2019-03-26T03:27:06.243Z,102768.14
2019-03-26T03:29:34.988Z,102768.30
2019-03-26T03:32:03.686Z,102769.84
2019-03-26T03:34:32.472Z,102766.13
2019-03-26T03:37:01.271Z,102779.36
2019-03-26T03:39:29.917Z,102767.28
2019-03-26T03:41:58.638Z,102773.36
2019-03-26T03:44:27.396Z,102778.87
2019-03-26T03:46:57.981Z,102776.49
2019-03-26T03:49:28.109Z,102780.52
2019-03-26T03:51:59.169Z,102773.47
2019-03-26T03:54:28.763Z,102773.30
2019-03-26T03:56:58.896Z,102782.55
2019-03-26T03:59:29.760Z,102776.54
2019-03-26T04:01:58.553Z,102776.20
2019-03-26T04:04:27.274Z,102772.52
2019-03-26T04:06:56.166Z,102769.16
2019-03-26T04:09:24.858Z,102774.86
2019-03-26T04:11:53.494Z,102777.70
2019-03-26T04:14:22.200Z,102775.86
2019-03-26T04:16:50.959Z,102780.23
2019-03-26T04:19:19.782Z,102772.34
2019-03-26T04:21:48.482Z,102770.84
2019-03-26T04:24:17.310Z,102768.33
2019-03-26T04:26:46.138Z,102763.45
2019-03-26T04:29:14.832Z,102759.28
2019-03-26T04:31:43.536Z,102765.83
2019-03-26T04:34:12.168Z,102770.36
2019-03-26T04:36:40.906Z,102767.33
2019-03-26T04:39:09.803Z,102764.48
2019-03-26T04:41:38.469Z,102770.02
2019-03-26T04:44:07.088Z,102764.16
2019-03-26T04:46:35.870Z,102776.76
2019-03-26T04:49:05.322Z,102767.86
2019-03-26T04:51:34.129Z,102684.89
2019-03-26T04:54:03.000Z,102775.56
2019-03-26T04:56:31.815Z,102777.72
2019-03-26T04:59:00.608Z,102787.45
2019-03-26T05:01:29.541Z,102786.10
2019-03-26T05:03:58.277Z,102786.61
2019-03-26T05:06:37.947Z,102787.60
2019-03-26T05:08:59.872Z,102783.57
2019-03-26T05:11:28.647Z,102772.17
2019-03-26T05:13:57.382Z,102767.97
2019-03-26T05:16:26.258Z,102764.63
2019-03-26T05:18:55.875Z,102763.44
2019-03-26T05:21:24.695Z,102753.72
2019-03-26T05:23:53.494Z,102766.48
2019-03-26T05:26:22.231Z,102767.48
2019-03-26T05:28:51.087Z,102764.45
2019-03-26T05:31:19.771Z,102763.80
2019-03-26T05:33:48.540Z,102762.61
2019-03-26T05:36:17.399Z,102764.98
2019-03-26T05:38:46.056Z,102766.48
2019-03-26T05:41:15.026Z,102764.80
2019-03-26T05:43:43.762Z,102785.77
2019-03-26T05:46:12.533Z,102757.62
2019-03-26T05:48:41.304Z,102762.11
2019-03-26T05:51:10.172Z,102770.84
2019-03-26T05:53:38.997Z,102767.97
2019-03-26T05:56:07.689Z,102772.83
2019-03-26T05:58:36.314Z,102773.17
2019-03-26T06:01:05.149Z,102781.56
2019-03-26T06:03:33.819Z,102775.15
2019-03-26T06:06:02.757Z,102780.95
2019-03-26T06:08:31.372Z,102779.80
2019-03-26T06:11:00.117Z,102775.09
2019-03-26T06:13:28.837Z,102770.06
2019-03-26T06:15:57.664Z,102772.74
2019-03-26T06:18:26.329Z,102774.59
2019-03-26T06:20:55.089Z,102768.02
2019-03-26T06:23:23.774Z,102781.74
2019-03-26T06:25:52.539Z,102785.95
2019-03-26T06:28:21.307Z,102782.85
2019-03-26T06:30:49.919Z,102782.85
2019-03-26T06:33:18.586Z,102782.30
2019-03-26T06:35:47.645Z,102778.39
2019-03-26T06:38:16.286Z,102771.06
2019-03-26T06:40:45.056Z,102789.33
2019-03-26T06:43:13.783Z,102789.33
2019-03-26T06:45:42.535Z,102790.98
2019-03-26T06:48:11.146Z,102786.83
2019-03-26T06:50:40.022Z,102786.94
2019-03-26T06:53:08.716Z,102786.94
2019-03-26T06:55:37.417Z,102782.61
2019-03-26T06:58:06.253Z,102783.31
2019-03-26T07:00:34.944Z,102784.42
2019-03-26T07:03:06.377Z,102795.19
2019-03-26T07:05:35.045Z,102788.33
2019-03-26T07:08:03.720Z,102788.35
2019-03-26T07:10:32.331Z,102785.80
2019-03-26T07:13:01.020Z,102784.42
2019-03-26T07:15:29.924Z,102787.75
2019-03-26T07:17:58.602Z,102784.69
2019-03-26T07:20:27.264Z,102789.09
2019-03-26T07:22:56.039Z,102798.99
2019-03-26T07:25:24.667Z,102801.04
2019-03-26T07:27:53.395Z,102789.70
2019-03-26T07:30:42.222Z,102793.97
2019-03-26T07:33:11.835Z,102791.59
2019-03-26T07:35:40.623Z,102790.53
2019-03-26T07:38:09.288Z,102784.86
2019-03-26T07:40:38.028Z,102783.94
2019-03-26T07:43:06.779Z,102797.74
2019-03-26T07:45:35.458Z,102786.92
2019-03-26T07:48:04.259Z,102792.27
2019-03-26T07:50:32.975Z,102795.02
2019-03-26T07:53:01.706Z,102790.67
2019-03-26T07:55:30.448Z,102786.05
2019-03-26T07:57:59.123Z,102785.02
2019-03-26T08:00:36.443Z,102792.58
2019-03-26T08:03:06.841Z,102792.84
2019-03-26T08:05:36.588Z,102795.88
2019-03-26T08:08:05.751Z,102795.34
2019-03-26T08:10:34.477Z,102790.52
2019-03-26T08:13:03.083Z,102794.38
2019-03-26T08:15:31.735Z,102798.83
2019-03-26T08:18:00.438Z,102803.91
2019-03-26T08:20:29.179Z,102810.24
2019-03-26T08:22:57.920Z,102800.93
2019-03-26T08:25:26.634Z,102807.28
2019-03-26T08:27:55.453Z,102818.39
2019-03-26T08:30:24.143Z,102801.45
2019-03-26T08:32:52.769Z,102807.55
2019-03-26T08:35:21.463Z,102819.44
2019-03-26T08:37:50.182Z,102813.45
2019-03-26T08:40:18.910Z,102815.55
2019-03-26T08:42:47.540Z,102813.80
2019-03-26T08:45:16.581Z,102816.84
2019-03-26T08:47:45.366Z,102822.48
2019-03-26T08:50:16.400Z,102829.52
2019-03-26T08:52:45.153Z,102821.92
2019-03-26T08:55:13.700Z,102824.17
2019-03-26T08:57:42.420Z,102819.61
2019-03-26T09:00:13.231Z,102823.98
2019-03-26T09:02:41.931Z,102823.08
2019-03-26T09:05:10.873Z,102822.17
2019-03-26T09:07:39.549Z,102820.47
2019-03-26T09:10:11.209Z,102804.27
2019-03-26T09:12:39.965Z,102816.48
2019-03-26T09:15:14.233Z,102814.36
2019-03-26T09:17:44.361Z,102815.96
2019-03-26T09:20:13.205Z,102819.91
2019-03-26T09:22:41.861Z,102815.81
2019-03-26T09:25:10.905Z,102813.64
2019-03-26T09:27:40.074Z,102818.88
2019-03-26T09:30:11.426Z,102818.88
2019-03-26T09:32:40.194Z,102820.80
2019-03-26T09:35:11.427Z,102824.34
2019-03-26T09:37:40.209Z,102821.55
2019-03-26T09:40:09.393Z,102815.23
2019-03-26T09:42:38.762Z,102819.27
2019-03-26T09:45:10.448Z,102812.14
2019-03-26T09:47:39.076Z,102816.27
2019-03-26T09:50:12.392Z,102814.98
2019-03-26T09:52:41.099Z,102820.77
2019-03-26T09:55:10.421Z,102818.16
2019-03-26T09:57:39.083Z,102824.05
2019-03-26T10:00:12.476Z,102830.47
2019-03-26T10:02:43.147Z,102830.16
2019-03-26T10:05:12.606Z,102844.80
2019-03-26T10:07:41.260Z,102849.48
2019-03-26T10:10:10.630Z,102839.66
2019-03-26T10:12:39.245Z,102843.32
2019-03-26T10:15:08.646Z,102841.30
2019-03-26T10:17:37.784Z,102842.94
2019-03-26T10:20:08.615Z,102840.77
2019-03-26T10:22:38.841Z,102837.02
2019-03-26T10:25:11.402Z,102834.95
2019-03-26T10:27:40.209Z,102837.14
2019-03-26T10:30:10.786Z,102827.73
2019-03-26T10:32:39.539Z,102822.69
2019-03-26T10:35:08.521Z,102820.59
2019-03-26T10:37:37.288Z,102824.82
2019-03-26T10:40:08.718Z,102832.41
2019-03-26T10:42:37.339Z,102824.70
2019-03-26T10:45:08.822Z,102823.43
2019-03-26T10:47:37.502Z,102822.52
2019-03-26T10:50:07.779Z,102830.42
2019-03-26T10:52:36.461Z,102829.02
2019-03-26T10:55:06.635Z,102826.04
2019-03-26T10:57:36.069Z,102822.69
2019-03-26T11:00:07.793Z,102818.38
2019-03-26T11:02:36.513Z,102814.16
2019-03-26T11:05:07.874Z,102813.92
2019-03-26T11:07:36.499Z,102809.16
2019-03-26T11:10:07.787Z,102800.83
2019-03-26T11:12:36.616Z,102800.44
2019-03-26T11:15:09.869Z,102798.46
2019-03-26T11:17:38.599Z,102791.20
2019-03-26T11:20:07.994Z,102787.38
2019-03-26T11:22:36.795Z,102786.59
2019-03-26T11:25:12.235Z,102789.41
2019-03-26T11:27:40.291Z,102792.27
2019-03-26T11:30:11.105Z,102792.11
2019-03-26T11:32:39.815Z,102795.22
2019-03-26T11:35:10.090Z,102798.25
2019-03-26T11:37:39.497Z,102792.87
2019-03-26T11:40:10.028Z,102785.84
2019-03-26T11:42:38.654Z,102781.20
2019-03-26T11:45:11.259Z,102774.03
2019-03-26T11:47:40.401Z,102778.63
2019-03-26T11:50:11.142Z,102770.66
2019-03-26T11:52:40.540Z,102764.42
2019-03-26T11:55:11.148Z,102759.98
2019-03-26T11:57:39.842Z,102782.36
2019-03-26T12:00:15.867Z,102761.66
2019-03-26T12:02:44.611Z,102757.25
2019-03-26T12:05:13.357Z,102763.66
2019-03-26T12:07:43.048Z,102767.30
2019-03-26T12:10:13.822Z,102766.30
2019-03-26T12:12:42.572Z,102762.05
2019-03-26T12:15:12.292Z,102772.33
2019-03-26T12:17:41.031Z,102766.50
2019-03-26T12:20:10.418Z,102765.20
2019-03-26T12:22:39.082Z,102763.42
2019-03-26T12:25:09.482Z,102772.97
2019-03-26T12:27:38.123Z,102772.14
2019-03-26T12:30:11.450Z,102778.91
2019-03-26T12:32:41.106Z,102769.25
2019-03-26T12:35:13.379Z,102728.58
2019-03-26T12:37:42.074Z,102777.95
2019-03-26T12:40:11.507Z,102773.38
2019-03-26T12:42:40.109Z,102774.91
2019-03-26T12:45:08.884Z,102770.59
2019-03-26T12:47:37.512Z,102773.01
2019-03-26T12:50:10.659Z,102773.41
2019-03-26T12:52:39.416Z,102769.84
2019-03-26T12:55:08.034Z,102770.69
2019-03-26T12:57:36.830Z,102774.77
2019-03-26T13:00:08.629Z,102778.14
2019-03-26T13:02:39.151Z,102784.52
2019-03-26T13:05:09.620Z,102786.03
2019-03-26T13:07:38.250Z,102781.20
2019-03-26T13:10:14.060Z,102778.09
2019-03-26T13:12:39.141Z,102774.80
2019-03-26T13:15:09.850Z,102779.12
2019-03-26T13:17:38.947Z,102776.44
2019-03-26T13:20:09.303Z,102773.74
2019-03-26T13:22:38.170Z,102759.25
2019-03-26T13:25:09.253Z,102763.02
2019-03-26T13:27:38.449Z,102767.92
2019-03-26T13:30:09.365Z,102763.78
2019-03-26T13:32:38.740Z,102762.60
2019-03-26T13:35:08.217Z,102759.88
2019-03-26T13:37:36.975Z,102759.63
2019-03-26T13:40:08.417Z,102761.33
2019-03-26T13:42:37.406Z,102764.42
2019-03-26T13:45:08.659Z,102754.90
2019-03-26T13:47:38.064Z,102766.10
2019-03-26T13:50:08.661Z,102747.72
2019-03-26T13:52:37.464Z,102768.53
2019-03-26T13:55:08.665Z,102769.76
2019-03-26T13:57:37.371Z,102769.02
2019-03-26T14:00:12.274Z,102764.63
2019-03-26T14:02:41.730Z,102761.84
2019-03-26T14:05:24.978Z,102758.20
2019-03-26T14:07:53.608Z,102760.24
2019-03-26T14:10:22.417Z,102755.60
2019-03-26T14:12:51.081Z,102757.17
2019-03-26T14:15:19.784Z,102752.93
2019-03-26T14:17:48.453Z,102747.84
2019-03-26T14:20:17.334Z,102756.97
2019-03-26T14:22:46.024Z,102755.87
2019-03-26T14:25:14.667Z,102764.37
2019-03-26T14:27:43.376Z,102768.44
2019-03-26T14:30:13.928Z,102764.47
2019-03-26T14:32:42.624Z,102762.72
2019-03-26T14:35:11.302Z,102759.69
2019-03-26T14:37:50.725Z,102765.86
2019-03-26T14:40:10.559Z,102758.56
2019-03-26T14:42:39.195Z,102750.24
2019-03-26T14:45:09.788Z,102761.23
2019-03-26T14:47:38.430Z,102760.25
2019-03-26T14:50:09.193Z,102763.64
2019-03-26T14:52:38.086Z,102764.41
2019-03-26T14:55:07.823Z,102766.56
2019-03-26T14:57:36.543Z,102762.91
2019-03-26T15:00:08.221Z,102765.69
2019-03-26T15:02:36.841Z,102760.39
2019-03-26T15:05:07.654Z,102766.96
2019-03-26T15:07:36.364Z,102771.45
2019-03-26T15:10:08.398Z,102767.30
2019-03-26T15:12:37.187Z,102769.92
2019-03-26T15:15:07.512Z,102773.71
2019-03-26T15:17:36.157Z,102773.60
2019-03-26T15:20:06.704Z,102764.47
2019-03-26T15:22:35.465Z,102743.66
2019-03-26T15:25:06.443Z,102771.88
2019-03-26T15:27:35.168Z,102752.06
2019-03-26T15:30:05.336Z,102777.03
2019-03-26T15:32:34.741Z,102773.24
2019-03-26T15:35:04.632Z,102767.55
2019-03-26T15:37:33.411Z,102770.76
2019-03-26T15:40:02.920Z,102766.48
2019-03-26T15:42:32.355Z,102765.03
2019-03-26T15:45:01.041Z,102772.98
2019-03-26T15:47:29.772Z,102769.19
2019-03-26T15:49:58.743Z,102764.08
2019-03-26T15:52:31.936Z,102769.48
2019-03-26T15:55:03.029Z,102759.99
2019-03-26T15:57:31.787Z,102771.02
2019-03-26T16:00:00.470Z,102770.53
2019-03-26T16:02:29.086Z,102776.70
2019-03-26T16:04:57.800Z,102778.86
2019-03-26T16:07:26.539Z,102787.65
2019-03-26T16:10:18.844Z,102784.91
2019-03-26T16:12:47.605Z,102780.84
2019-03-26T16:15:16.234Z,102780.80
2019-03-26T16:17:47.178Z,102781.59
2019-03-26T16:20:17.562Z,102786.42
2019-03-26T16:22:50.457Z,102776.53
2019-03-26T16:25:19.218Z,102778.72
2019-03-26T16:27:47.872Z,102801.39
2019-03-26T16:30:17.428Z,102774.72
2019-03-26T16:32:46.187Z,102773.16
2019-03-26T16:35:15.518Z,102761.45
2019-03-26T16:37:44.267Z,102765.83
2019-03-26T16:40:13.015Z,102761.41
2019-03-26T16:42:41.748Z,102765.83
2019-03-26T16:45:11.122Z,102766.23
2019-03-26T16:47:39.928Z,102769.84
2019-03-26T16:50:14.793Z,102766.25
2019-03-26T16:52:45.921Z,102765.92
2019-03-26T16:55:15.058Z,102767.27
2019-03-26T16:57:43.815Z,102770.75
2019-03-26T17:00:13.532Z,102774.29
2019-03-26T17:02:44.225Z,102775.02
2019-03-26T17:05:14.723Z,102770.13
2019-03-26T17:07:43.509Z,102771.87
2019-03-26T17:10:27.353Z,102768.00
2019-03-26T17:12:57.810Z,102773.94
2019-03-26T17:15:26.588Z,102777.54
2019-03-26T17:17:56.727Z,102781.02
2019-03-26T17:20:29.280Z,102778.71
2019-03-26T17:22:57.890Z,102780.63
2019-03-26T17:25:27.926Z,102768.44
2019-03-26T17:27:56.947Z,102767.08
2019-03-26T17:30:25.856Z,102762.80
2019-03-26T17:32:55.843Z,102767.95
2019-03-26T17:35:24.679Z,102771.42
2019-03-26T17:37:59.476Z,102773.84
2019-03-26T17:40:25.014Z,102774.56
2019-03-26T17:42:56.938Z,102771.59
2019-03-26T17:45:25.731Z,102769.10
2019-03-26T17:47:54.897Z,102769.36
2019-03-26T17:50:23.898Z,102773.13
2019-03-26T17:52:53.236Z,102782.14
2019-03-26T17:55:22.234Z,102785.06
2019-03-26T17:57:53.275Z,102784.98
2019-03-26T18:00:29.481Z,102780.05
2019-03-26T18:03:01.233Z,102775.56
2019-03-26T18:05:30.086Z,102775.81
2019-03-26T18:07:58.791Z,102786.47
2019-03-26T18:10:27.634Z,102785.63
2019-03-26T18:12:56.503Z,102789.70
2019-03-26T18:15:25.876Z,102789.24
2019-03-26T18:17:54.586Z,102791.64
2019-03-26T18:20:32.453Z,102793.66
2019-03-26T18:22:53.789Z,102801.69
2019-03-26T18:25:22.530Z,102807.45
2019-03-26T18:27:51.600Z,102818.35
2019-03-26T18:30:20.215Z,102826.36
2019-03-26T18:32:48.943Z,102824.70
2019-03-26T18:35:17.663Z,102837.80
2019-03-26T18:37:46.392Z,102839.99
2019-03-26T18:40:17.884Z,102841.47
2019-03-26T18:42:46.707Z,102846.52
2019-03-26T18:45:15.632Z,102856.08
2019-03-26T18:48:00.932Z,102858.14
2019-03-26T18:50:30.377Z,102855.78
2019-03-26T18:52:59.065Z,102841.78
2019-03-26T18:55:29.258Z,102851.73
2019-03-26T18:57:58.683Z,102852.04
2019-03-26T19:00:36.026Z,102857.63
2019-03-26T19:03:06.166Z,102858.14
2019-03-26T19:05:34.968Z,102828.89
2019-03-26T19:08:04.177Z,102855.44
2019-03-26T19:10:36.057Z,102852.62
2019-03-26T19:13:18.831Z,102851.44
2019-03-26T19:15:37.282Z,102767.67
2019-03-26T19:18:08.118Z,102850.00
2019-03-26T19:20:36.885Z,102853.40
2019-03-26T19:23:05.598Z,102858.28
2019-03-26T19:25:34.319Z,102858.98
2019-03-26T19:28:03.022Z,102864.37
2019-03-26T19:30:31.813Z,102863.70
2019-03-26T19:33:00.420Z,102860.17
2019-03-26T19:35:29.111Z,102867.73
2019-03-26T19:37:58.965Z,102871.61
2019-03-26T19:40:27.712Z,102867.44
2019-03-26T19:43:09.798Z,102866.09
2019-03-26T19:45:26.738Z,102872.99
2019-03-26T19:47:55.458Z,102865.75
2019-03-26T19:50:24.119Z,102866.90
2019-03-26T19:52:52.869Z,102869.29
2019-03-26T19:55:31.277Z,102872.95
2019-03-26T19:58:06.112Z,102871.14
2019-03-26T20:00:36.148Z,102873.50
2019-03-26T20:03:08.432Z,102882.28
2019-03-26T20:05:39.696Z,102856.36
2019-03-26T20:08:08.808Z,102877.91
2019-03-26T20:10:43.654Z,102883.66
2019-03-26T20:13:24.200Z,102895.61
2019-03-26T20:15:47.367Z,102889.92
2019-03-26T20:18:22.605Z,102893.42
2019-03-26T20:20:54.756Z,102897.83
2019-03-26T20:23:34.700Z,102896.62
2019-03-26T20:26:08.867Z,102898.61
2019-03-26T20:28:38.038Z,102875.60
2019-03-26T20:31:06.737Z,102890.95
2019-03-26T20:33:35.449Z,102896.98
2019-03-26T20:36:08.494Z,102890.98
2019-03-26T20:38:38.926Z,102893.48
2019-03-26T20:41:08.204Z,102892.13
2019-03-26T20:43:40.885Z,102898.00
2019-03-26T20:46:10.314Z,102898.16
2019-03-26T20:48:39.106Z,102901.76
2019-03-26T20:51:11.851Z,102897.72
2019-03-26T20:53:41.017Z,102898.25
2019-03-26T20:56:10.401Z,102902.86
2019-03-26T20:58:39.581Z,102915.98
2019-03-26T21:01:08.336Z,102920.72
2019-03-26T21:03:37.043Z,102910.95
2019-03-26T21:06:05.803Z,102910.66
2019-03-26T21:08:34.534Z,102910.31
2019-03-26T21:11:03.299Z,102919.09
2019-03-26T21:13:32.047Z,102924.75
2019-03-26T21:16:00.882Z,102920.10
2019-03-26T21:18:32.218Z,102917.21
2019-03-26T21:21:04.793Z,102919.95
2019-03-26T21:23:43.191Z,102916.59
2019-03-26T21:26:14.432Z,102904.84
2019-03-26T21:28:43.033Z,102910.45
2019-03-26T21:31:12.466Z,102903.02
2019-03-26T21:33:43.779Z,102898.08
2019-03-26T21:36:14.160Z,102900.77
2019-03-26T21:38:48.944Z,102904.66
2019-03-26T21:41:18.422Z,102904.19
2019-03-26T21:43:47.271Z,102901.34
2019-03-26T21:46:19.320Z,102895.56
2019-03-26T21:48:47.988Z,102901.82
2019-03-26T21:51:16.860Z,102895.12
2019-03-26T21:53:46.266Z,102900.40
2019-03-26T21:56:16.477Z,102915.19
2019-03-26T21:58:45.086Z,102913.00
2019-03-26T22:01:14.083Z,102828.22
2019-03-26T22:03:44.814Z,102915.77
2019-03-26T22:06:13.506Z,102912.26
2019-03-26T22:08:42.225Z,102910.97
2019-03-26T22:11:10.974Z,102916.19
2019-03-26T22:13:42.857Z,102919.53
2019-03-26T22:16:12.034Z,102914.85
2019-03-26T22:18:42.809Z,102920.92
2019-03-26T22:21:16.958Z,102924.80
2019-03-26T22:23:45.789Z,102927.50
2019-03-26T22:26:14.618Z,102929.03
2019-03-26T22:28:43.216Z,102921.83
2019-03-26T22:31:11.976Z,102920.34
2019-03-26T22:33:40.877Z,102918.70
2019-03-26T22:36:09.593Z,102920.73
2019-03-26T22:38:38.283Z,102926.95
2019-03-26T22:41:07.028Z,102926.14
2019-03-26T22:43:35.772Z,102869.48
2019-03-26T22:46:05.063Z,102929.35
2019-03-26T22:48:33.774Z,102932.03
2019-03-26T22:51:02.379Z,102928.31
2019-03-26T22:53:31.087Z,102923.48
2019-03-26T22:55:59.711Z,102933.71
2019-03-26T22:58:28.346Z,102933.52
2019-03-26T23:00:57.451Z,102933.86
2019-03-26T23:03:26.278Z,102939.42
2019-03-26T23:05:55.019Z,102937.39
2019-03-26T23:08:23.660Z,102941.44
2019-03-26T23:10:52.426Z,102939.75
2019-03-26T23:13:21.166Z,102949.63
2019-03-26T23:15:49.915Z,102946.64
2019-03-26T23:18:18.617Z,102944.11
2019-03-26T23:20:47.377Z,102939.93
2019-03-26T23:23:16.113Z,102939.93
2019-03-26T23:25:44.740Z,102943.80
2019-03-26T23:28:13.461Z,102941.42
2019-03-26T23:30:42.136Z,102939.42
2019-03-26T23:33:10.973Z,102939.58
2019-03-26T23:35:39.709Z,102942.44
2019-03-26T23:38:08.427Z,102942.44
2019-03-26T23:40:37.139Z,102941.44
2019-03-26T23:43:05.865Z,102937.25
2019-03-26T23:45:34.591Z,102946.63
2019-03-26T23:48:03.422Z,102943.62
2019-03-26T23:50:32.125Z,102951.14
2019-03-26T23:53:00.884Z,102947.30
2019-03-26T23:55:29.655Z,102947.30
2019-03-26T23:57:58.331Z,102948.63
